Time;durP1;ratioP1;P1;durP2;ratioP2;P2;SDS_P1;SDS_P2;PMS_P1;PMS_P2;Temp;Humidity;BMP_temperature;BMP_pressure;BME280_temperature;BME280_humidity;BME280_pressure;Samples;Min_cycle;Max_cycle;Signal;HPM_P1;HPM_P2
2023/02/16 00:02:04;;;;;;;167.80;77.50;;;;;;;-2.23;96.89;100007.94;271118;1270;22574;-86
2023/02/16 00:08:06;;;;;;;159.40;72.40;;;;;;;-2.27;97.14;100006.91;270874;1269;22589;-87
2023/02/16 00:14:10;;;;;;;154.70;73.00;;;;;;;-2.26;97.49;100005.78;272810;1270;22286;-88
2023/02/16 00:20:16;;;;;;;166.50;75.40;;;;;;;-2.27;97.60;100003.05;270798;1270;22240;-87
2023/02/16 00:26:23;;;;;;;157.30;70.90;;;;;;;-2.36;97.09;99990.92;273628;1270;22209;-87
2023/02/16 00:32:25;;;;;;;171.90;75.90;;;;;;;-2.44;97.10;99982.12;271518;1270;22389;-87
2023/02/16 00:38:27;;;;;;;189.00;83.30;;;;;;;-2.51;97.09;99983.17;273685;1270;22279;-87
2023/02/16 00:44:34;;;;;;;159.60;71.70;;;;;;;-2.55;97.53;99975.56;273309;1273;22427;-87
2023/02/16 00:50:36;;;;;;;159.50;68.70;;;;;;;-2.55;97.81;99968.65;272237;1273;22829;-87
2023/02/16 00:56:39;;;;;;;173.40;73.60;;;;;;;-2.56;97.67;99967.36;269622;1270;23276;-86
2023/02/16 01:02:43;;;;;;;172.60;74.20;;;;;;;-2.59;97.81;99962.95;269228;1269;22538;-87
2023/02/16 01:15:13;;;;;;;183.00;84.10;;;;;;;-2.70;97.74;99939.94;270187;1270;22505;-87
2023/02/16 01:21:14;;;;;;;190.20;83.80;;;;;;;-2.77;97.93;99934.13;270221;1266;25411;-87
2023/02/16 01:27:16;;;;;;;187.30;78.90;;;;;;;-2.80;98.01;99925.45;272174;1264;22335;-87
2023/02/16 01:33:20;;;;;;;188.30;81.00;;;;;;;-2.84;98.14;99922.65;270925;1269;22565;-86
2023/02/16 01:39:22;;;;;;;187.20;81.10;;;;;;;-2.90;97.97;99923.39;270059;1269;22242;-87
2023/02/16 01:45:33;;;;;;;195.90;82.50;;;;;;;-2.94;98.15;99922.73;273581;1259;22386;-87
2023/02/16 01:51:46;;;;;;;199.10;90.20;;;;;;;-2.95;98.29;99919.19;273627;1269;22313;-86
2023/02/16 01:57:52;;;;;;;214.80;100.40;;;;;;;-2.96;98.34;99908.05;271830;1269;22390;-85
2023/02/16 02:10:54;;;;;;;220.70;94.30;;;;;;;-2.96;98.58;99892.61;270789;1263;22389;-84
2023/02/16 02:17:08;;;;;;;204.30;94.10;;;;;;;-2.98;98.57;99877.82;271736;1261;22639;-85
2023/02/16 02:23:36;;;;;;;205.90;92.30;;;;;;;-3.08;98.32;99877.22;270486;1257;22723;-84
2023/02/16 02:30:23;;;;;;;202.70;92.40;;;;;;;-3.19;98.03;99883.67;269683;1263;23475;-84
2023/02/16 02:36:36;;;;;;;200.50;90.70;;;;;;;-3.29;98.08;99884.50;270692;1268;24260;-85
2023/02/16 02:43:22;;;;;;;216.60;96.20;;;;;;;-3.39;98.05;99884.84;269875;1260;24239;-85
2023/02/16 02:49:23;;;;;;;202.70;91.20;;;;;;;-3.56;97.70;99887.14;270482;1259;22655;-84
2023/02/16 03:01:57;;;;;;;196.90;88.40;;;;;;;-3.54;98.64;99879.01;269542;1269;22609;-84
2023/02/16 03:08:12;;;;;;;207.30;90.60;;;;;;;-3.54;99.00;99882.97;270546;1269;22918;-83
2023/02/16 03:14:25;;;;;;;220.20;98.30;;;;;;;-3.55;98.76;99890.46;273750;1257;22413;-83
2023/02/16 03:33:09;;;;;;;203.30;87.80;;;;;;;-3.66;98.45;99903.10;270972;1269;22552;-82
2023/02/16 03:39:11;;;;;;;194.70;86.30;;;;;;;-3.71;98.50;99907.58;272296;1270;22184;-83
2023/02/16 03:45:12;;;;;;;204.70;91.20;;;;;;;-3.72;98.76;99898.46;273600;1269;22297;-83
2023/02/16 03:51:15;;;;;;;169.00;78.00;;;;;;;-3.70;98.90;99893.48;273556;1269;22411;-84
2023/02/16 03:57:16;;;;;;;177.80;78.50;;;;;;;-3.68;99.13;99890.63;273528;1269;22531;-83
2023/02/16 04:03:18;;;;;;;175.30;74.80;;;;;;;-3.62;99.57;99889.46;270256;1269;22564;-84
2023/02/16 04:09:19;;;;;;;186.70;81.40;;;;;;;-3.56;100.00;99885.20;271907;1262;22358;-83
2023/02/16 04:15:24;;;;;;;190.10;80.20;;;;;;;-3.54;99.79;99884.67;273778;1257;22368;-83
2023/02/16 04:21:26;;;;;;;181.20;76.30;;;;;;;-3.55;99.92;99889.22;272884;1269;22412;-84
2023/02/16 04:27:28;;;;;;;184.70;77.50;;;;;;;-3.54;100.00;99887.90;271709;1269;22214;-84
2023/02/16 04:33:30;;;;;;;171.60;74.40;;;;;;;-3.52;100.00;99885.65;273733;1259;23024;-83
2023/02/16 04:39:32;;;;;;;165.70;70.20;;;;;;;-3.49;100.00;99875.33;273822;1259;23109;-83
2023/02/16 04:45:33;;;;;;;171.70;72.80;;;;;;;-3.46;100.00;99866.63;273795;1269;22300;-83
2023/02/16 04:51:35;;;;;;;183.10;74.60;;;;;;;-3.45;100.00;99860.58;273861;1269;22285;-83
2023/02/16 04:57:38;;;;;;;181.70;71.10;;;;;;;-3.47;100.00;99858.74;273545;1272;22418;-82
2023/02/16 05:03:40;;;;;;;166.90;68.30;;;;;;;-3.47;100.00;99864.15;273725;1269;22353;-83
2023/02/16 05:09:43;;;;;;;163.40;68.70;;;;;;;-3.47;100.00;99868.00;273834;1268;22918;-83
2023/02/16 05:15:44;;;;;;;185.30;72.80;;;;;;;-3.45;100.00;99873.44;271275;1260;22594;-83
2023/02/16 05:21:46;;;;;;;174.80;75.60;;;;;;;-3.47;100.00;99862.02;270176;1253;22387;-87
2023/02/16 05:27:47;;;;;;;174.00;73.20;;;;;;;-3.52;100.00;99853.48;270515;1266;22558;-83
2023/02/16 05:33:52;;;;;;;186.60;77.70;;;;;;;-3.54;100.00;99848.28;272377;1268;23065;-84
2023/02/16 05:39:53;;;;;;;167.00;74.40;;;;;;;-3.57;100.00;99849.88;273817;1259;22237;-83
2023/02/16 05:45:56;;;;;;;169.60;74.30;;;;;;;-3.58;100.00;99855.13;273787;1268;22362;-83
2023/02/16 05:51:58;;;;;;;183.90;78.80;;;;;;;-3.59;100.00;99854.86;272955;1257;23328;-83
2023/02/16 05:58:00;;;;;;;174.40;72.80;;;;;;;-3.59;100.00;99865.25;272371;1269;24182;-83
2023/02/16 06:04:01;;;;;;;155.30;69.80;;;;;;;-3.56;100.00;99865.56;271275;1260;23476;-83
2023/02/16 06:10:03;;;;;;;151.50;64.10;;;;;;;-3.50;100.00;99867.56;271165;1268;22530;-83
2023/02/16 06:16:05;;;;;;;164.90;68.00;;;;;;;-3.41;100.00;99865.94;272164;1269;22395;-83
2023/02/16 06:22:10;;;;;;;176.40;73.90;;;;;;;-3.27;100.00;99867.42;272304;1257;22755;-83
2023/02/16 06:28:14;;;;;;;202.60;83.20;;;;;;;-3.06;100.00;99868.34;270201;1269;24394;-84
2023/02/16 06:34:16;;;;;;;206.40;87.60;;;;;;;-2.75;100.00;99865.86;269957;1256;22547;-82
2023/02/16 06:40:18;;;;;;;185.90;82.50;;;;;;;-2.48;100.00;99863.07;270053;1263;25399;-83
2023/02/16 06:46:21;;;;;;;177.50;76.20;;;;;;;-2.25;100.00;99862.56;271540;1269;22635;-83
2023/02/16 06:52:23;;;;;;;174.00;76.70;;;;;;;-2.04;100.00;99867.58;273248;1272;22291;-82
2023/02/16 06:58:25;;;;;;;171.20;77.30;;;;;;;-1.78;100.00;99874.54;273695;1259;22415;-84
2023/02/16 07:04:27;;;;;;;168.70;76.00;;;;;;;-1.59;100.00;99881.83;273734;1269;23176;-83
2023/02/16 07:10:28;;;;;;;144.00;67.90;;;;;;;-1.44;100.00;99884.34;273714;1270;23281;-82
2023/02/16 07:16:30;;;;;;;148.70;68.20;;;;;;;-1.25;100.00;99885.59;273767;1269;22374;-83
2023/02/16 07:22:32;;;;;;;154.40;69.70;;;;;;;-1.04;100.00;99886.94;272902;1260;23608;-83
2023/02/16 07:28:37;;;;;;;151.40;70.30;;;;;;;-0.86;100.00;99884.08;272639;1257;22618;-83
2023/02/16 07:34:40;;;;;;;153.10;67.30;;;;;;;-0.44;100.00;99877.48;271579;1269;22932;-84
2023/02/16 07:41:01;;;;;;;139.40;65.30;;;;;;;0.06;100.00;99875.71;273845;1256;22285;-85
2023/02/16 07:47:03;;;;;;;120.50;54.40;;;;;;;0.77;100.00;99880.64;269859;1269;22689;-84
2023/02/16 07:53:06;;;;;;;123.80;55.50;;;;;;;1.38;100.00;99880.81;273634;1269;22280;-84
2023/02/16 07:59:08;;;;;;;100.60;45.10;;;;;;;1.84;100.00;99877.47;273247;1269;24289;-84
2023/02/16 08:05:09;;;;;;;103.90;43.30;;;;;;;2.19;100.00;99875.58;271489;1254;22450;-84
2023/02/16 08:11:14;;;;;;;91.50;41.50;;;;;;;2.53;100.00;99874.50;273895;1269;22398;-84
2023/02/16 08:17:16;;;;;;;90.70;41.80;;;;;;;2.74;100.00;99875.76;272995;1258;23094;-85
2023/02/16 08:23:18;;;;;;;84.20;39.60;;;;;;;2.95;100.00;99876.58;273300;1260;23069;-85
2023/02/16 08:29:21;;;;;;;92.80;40.70;;;;;;;3.49;100.00;99884.23;272636;1269;22276;-85
2023/02/16 08:35:24;;;;;;;83.20;38.60;;;;;;;3.96;100.00;99882.77;273657;1259;23328;-87
2023/02/16 08:41:34;;;;;;;83.70;41.30;;;;;;;4.50;100.00;99876.51;273213;1269;22459;-86
2023/02/16 08:47:36;;;;;;;69.70;36.70;;;;;;;5.07;99.95;99868.13;273696;1259;23437;-85
2023/02/16 08:53:37;;;;;;;76.70;37.50;;;;;;;5.57;98.92;99863.91;273470;1266;22325;-86
2023/02/16 08:59:39;;;;;;;77.10;40.60;;;;;;;6.18;98.25;99858.70;272304;1261;24256;-86
2023/02/16 09:05:41;;;;;;;77.70;38.80;;;;;;;6.66;96.23;99857.77;273368;1272;22395;-86
2023/02/16 09:11:43;;;;;;;76.10;40.40;;;;;;;6.67;93.82;99860.88;273453;1261;22266;-86
2023/02/16 09:17:45;;;;;;;78.20;40.20;;;;;;;6.66;94.54;99861.20;273591;1269;22296;-87
2023/02/16 09:23:48;;;;;;;73.90;38.40;;;;;;;7.42;95.01;99858.56;273558;1269;22206;-85
2023/02/16 09:29:51;;;;;;;63.50;36.20;;;;;;;8.06;93.13;99856.45;273391;1270;120409;-86
2023/02/16 09:35:53;;;;;;;71.10;38.00;;;;;;;8.25;91.62;99852.44;272564;1269;22560;-87
2023/02/16 09:42:18;;;;;;;69.30;38.80;;;;;;;8.69;92.04;99842.83;273070;1269;22407;-87
2023/02/16 09:48:30;;;;;;;62.90;36.80;;;;;;;8.94;89.56;99840.18;273344;1268;23792;-86
2023/02/16 09:54:49;;;;;;;68.90;37.90;;;;;;;9.14;89.01;99836.05;272698;1269;22570;-88
2023/02/16 10:00:58;;;;;;;63.90;36.80;;;;;;;9.53;87.97;99840.45;273255;1269;22238;-88
2023/02/16 10:07:09;;;;;;;57.10;33.40;;;;;;;9.80;87.02;99843.10;272953;1269;22318;-87
2023/02/16 10:13:35;;;;;;;55.90;33.00;;;;;;;9.94;86.15;99838.48;271945;1263;24030;-87
2023/02/16 10:19:50;;;;;;;52.90;29.90;;;;;;;10.04;84.70;99838.92;272969;1269;22460;-87
2023/02/16 10:25:59;;;;;;;59.70;34.00;;;;;;;9.88;83.48;99835.73;272866;1269;22699;-87
2023/02/16 10:32:25;;;;;;;55.90;32.80;;;;;;;9.83;83.74;99832.88;272514;1269;22547;-87
2023/02/16 10:38:51;;;;;;;56.10;29.00;;;;;;;10.14;83.50;99830.98;270924;1270;22558;-88
2023/02/16 10:45:03;;;;;;;52.50;31.00;;;;;;;9.97;81.81;99834.59;270030;1270;22633;-88
2023/02/16 10:51:16;;;;;;;53.70;30.10;;;;;;;9.72;82.02;99829.36;270195;1270;22228;-89
2023/02/16 10:57:27;;;;;;;49.40;28.70;;;;;;;9.82;81.62;99823.38;270822;1269;25334;-89
2023/02/16 11:03:40;;;;;;;47.90;28.70;;;;;;;9.50;80.58;99806.81;271081;1269;23335;-88
2023/02/16 11:09:56;;;;;;;49.40;27.10;;;;;;;9.39;80.91;99799.55;271973;1270;22637;-89
2023/02/16 11:16:05;;;;;;;48.80;27.80;;;;;;;9.52;81.22;99791.86;271553;1270;22646;-89
2023/02/16 11:22:25;;;;;;;49.70;27.40;;;;;;;9.88;81.34;99777.38;272013;1269;22536;-91
2023/02/16 11:28:29;;;;;;;48.50;27.10;;;;;;;10.31;80.45;99769.27;271468;1262;22650;-90
2023/02/16 11:34:45;;;;;;;;;;;;;;;;;;;;;
2023/02/16 11:40:54;;;;;;;50.80;27.90;;;;;;;10.18;79.00;99748.73;271685;1269;22610;-92
2023/02/16 11:47:30;;;;;;;50.00;28.80;;;;;;;10.09;78.71;99737.46;271957;1269;22569;-91
2023/02/16 11:53:50;;;;;;;49.90;28.70;;;;;;;9.79;78.25;99735.80;270815;1270;22211;-92
2023/02/16 11:59:52;;;;;;;56.30;27.50;;;;;;;9.57;78.66;99733.05;271697;1269;22239;-90
2023/02/16 12:06:08;;;;;;;50.90;28.10;;;;;;;9.62;78.95;99719.27;271880;1269;22419;-90
2023/02/16 12:12:48;;;;;;;40.90;23.90;;;;;;;9.63;78.53;99711.11;271869;1272;22901;-91
2023/02/16 12:19:06;;;;;;;45.30;25.00;;;;;;;9.56;78.34;99706.02;272499;1270;22273;-92
2023/02/16 12:25:31;;;;;;;46.50;23.60;;;;;;;9.45;77.60;99697.65;272699;1269;22441;-89
2023/02/16 12:32:09;;;;;;;45.20;25.10;;;;;;;9.32;78.03;99687.39;269927;1257;22999;-90
2023/02/16 12:38:40;;;;;;;42.00;23.80;;;;;;;9.33;78.21;99681.10;272185;1269;22601;-89
2023/02/16 12:44:54;;;;;;;44.60;25.00;;;;;;;9.36;77.80;99668.54;271268;1259;22674;-89
2023/02/16 12:50:57;;;;;;;46.80;24.20;;;;;;;9.41;77.72;99659.60;272934;1270;23586;-90
2023/02/16 12:57:05;;;;;;;39.80;23.30;;;;;;;9.30;77.22;99652.86;273057;1270;22179;-90
2023/02/16 13:03:13;;;;;;;44.90;23.20;;;;;;;9.25;77.14;99641.99;271834;1263;22336;-90
2023/02/16 13:09:58;;;;;;;39.70;21.80;;;;;;;9.31;77.02;99637.80;271393;1270;22573;-88
2023/02/16 13:16:31;;;;;;;43.90;22.50;;;;;;;9.42;76.96;99633.95;270208;1265;25277;-91
2023/02/16 13:22:46;;;;;;;42.40;23.40;;;;;;;9.44;76.34;99626.36;272678;1270;22224;-90
2023/02/16 13:29:02;;;;;;;43.80;22.50;;;;;;;9.42;76.54;99623.41;272020;1264;22388;-91
2023/02/16 13:35:25;;;;;;;40.60;22.40;;;;;;;9.47;76.12;99618.93;270671;1269;22543;-90
2023/02/16 13:41:51;;;;;;;40.80;20.20;;;;;;;9.46;75.74;99617.03;270722;1270;22606;-90
2023/02/16 13:47:55;;;;;;;40.00;21.30;;;;;;;9.45;75.18;99612.48;271550;1269;22510;-90
2023/02/16 13:54:02;;;;;;;44.60;23.00;;;;;;;9.35;74.75;99609.25;270417;1269;22533;-90
2023/02/16 14:00:05;;;;;;;35.80;19.80;;;;;;;9.24;74.80;99603.91;270995;1263;23990;-91
2023/02/16 14:06:36;;;;;;;36.90;20.00;;;;;;;9.18;75.10;99602.50;271030;1270;23413;-91
2023/02/16 14:12:39;;;;;;;37.00;18.60;;;;;;;9.13;74.96;99605.08;272217;1270;22550;-90
2023/02/16 14:18:47;;;;;;;34.20;17.90;;;;;;;9.08;75.01;99605.73;270756;1272;22384;-90
2023/02/16 14:24:57;;;;;;;32.70;17.20;;;;;;;9.00;74.68;99605.23;272396;1270;22331;-87
2023/02/16 14:31:14;;;;;;;35.50;20.10;;;;;;;8.89;75.01;99603.89;272705;1270;22345;-92
2023/02/16 14:37:16;;;;;;;44.50;22.40;;;;;;;8.80;74.78;99603.87;272457;1270;22572;-91
2023/02/16 14:43:41;;;;;;;38.00;19.70;;;;;;;8.69;74.77;99602.94;271523;1264;22364;-91
2023/02/16 14:50:03;;;;;;;38.50;18.60;;;;;;;8.59;74.92;99600.47;273023;1270;22517;-90
2023/02/16 14:56:19;;;;;;;37.30;18.90;;;;;;;8.48;74.76;99599.86;273162;1270;22355;-91
2023/02/16 15:02:32;;;;;;;33.20;18.50;;;;;;;8.36;74.68;99591.61;272776;1269;22810;-91
2023/02/16 15:09:12;;;;;;;39.40;19.70;;;;;;;8.22;74.86;99583.93;273028;1270;22222;-91
2023/02/16 15:15:47;;;;;;;33.90;18.60;;;;;;;8.04;74.81;99582.67;270790;1270;22633;-89
2023/02/16 15:22:12;;;;;;;35.30;19.80;;;;;;;7.85;74.96;99585.70;270995;1266;22734;-93
2023/02/16 15:28:24;;;;;;;42.50;21.10;;;;;;;7.65;75.32;99587.16;273141;1254;23151;-90
2023/02/16 15:34:27;;;;;;;38.60;20.40;;;;;;;7.47;75.70;99594.30;273048;1273;23150;-89
2023/02/16 15:40:34;;;;;;;;;;;;;;;7.24;75.90;99596.39;269857;1263;22600;-90
2023/02/16 15:54:31;;;;;;;46.50;22.90;;;;;;;6.80;76.88;99607.98;270963;1276;23490;-91
2023/02/16 16:00:49;;;;;;;48.30;25.60;;;;;;;6.61;77.30;99609.79;271044;1270;22538;-89
2023/02/16 16:06:52;;;;;;;49.70;24.80;;;;;;;6.47;77.80;99606.65;272450;1270;22441;-91
2023/02/16 16:13:50;;;;;;;51.50;25.30;;;;;;;6.33;78.23;99606.21;272573;1270;22615;-90
2023/02/16 16:19:53;;;;;;;39.60;21.00;;;;;;;6.21;78.76;99608.71;272073;1270;23770;-90
2023/02/16 16:25:59;;;;;;;59.80;29.00;;;;;;;6.11;79.11;99607.29;271687;1270;22678;-90
2023/02/16 16:32:05;;;;;;;67.30;31.70;;;;;;;6.03;79.68;99609.63;272479;1270;22514;-91
2023/02/16 16:38:23;;;;;;;58.10;29.80;;;;;;;5.91;79.82;99607.44;273182;1270;22304;-91
2023/02/16 16:51:30;;;;;;;72.90;34.50;;;;;;;5.50;80.69;99604.98;271923;1270;22359;-91
2023/02/16 16:57:33;;;;;;;87.30;40.90;;;;;;;5.35;80.96;99616.94;271143;1271;25378;-91
2023/02/16 17:03:37;;;;;;;83.80;38.20;;;;;;;5.17;81.45;99619.38;271144;1270;22492;-91
2023/02/16 17:09:41;;;;;;;83.20;38.80;;;;;;;5.00;82.34;99616.34;273140;1270;23756;-91
2023/02/16 17:23:39;;;;;;;86.70;41.60;;;;;;;4.85;82.99;99625.60;271327;1269;22319;-92
2023/02/16 17:29:48;;;;;;;76.10;35.00;;;;;;;4.76;83.44;99633.80;272758;1269;22227;-90
2023/02/16 17:35:52;;;;;;;87.00;37.80;;;;;;;4.69;83.75;99641.70;273581;1273;22178;-90
2023/02/16 17:42:00;;;;;;;74.70;35.30;;;;;;;4.61;83.75;99638.52;273377;1273;22451;-90
2023/02/16 17:48:18;;;;;;;81.30;38.20;;;;;;;4.50;83.85;99642.19;272955;1270;22253;-91
2023/02/16 17:54:21;;;;;;;76.00;37.20;;;;;;;4.34;83.80;99637.27;272911;1269;22337;-92
2023/02/16 18:00:40;;;;;;;81.10;39.50;;;;;;;4.17;83.88;99642.41;273308;1270;22399;-91
2023/02/16 18:06:58;;;;;;;108.10;53.60;;;;;;;3.96;84.08;99645.00;273264;1270;22171;-91
2023/02/16 18:13:04;;;;;;;113.80;57.80;;;;;;;3.78;84.20;99646.00;272545;1270;22702;-90
2023/02/16 18:19:30;;;;;;;90.80;45.10;;;;;;;3.64;84.51;99645.06;273319;1269;23174;-91
2023/02/16 18:25:37;;;;;;;95.20;44.80;;;;;;;3.49;84.49;99644.95;272831;1269;22325;-90
2023/02/16 18:32:22;;;;;;;86.40;42.40;;;;;;;3.37;85.33;99641.14;271895;1269;22198;-89
2023/02/16 18:38:37;;;;;;;90.50;42.70;;;;;;;3.32;85.77;99645.19;272794;1270;23653;-90
2023/02/16 18:44:54;;;;;;;;;;;;;;;;;;;;;
2023/02/16 18:51:19;;;;;;;;;;;;;;;;;;;;;
2023/02/16 18:57:48;;;;;;;110.40;50.70;;;;;;;2.73;86.62;99651.85;272043;1270;22577;-91
2023/02/16 19:04:31;;;;;;;;;;;;;;;;;;;;;
2023/02/16 19:11:31;;;;;;;95.20;44.00;;;;;;;2.40;87.77;99666.84;272101;1270;22239;-89
2023/02/16 19:18:15;;;;;;;101.40;47.40;;;;;;;2.35;87.74;99665.18;272638;1269;22356;-91
2023/02/16 19:24:21;;;;;;;96.10;45.20;;;;;;;2.25;88.21;99667.51;273468;1269;22465;-91
2023/02/16 19:30:48;;;;;;;100.00;45.80;;;;;;;2.20;88.64;99673.08;273340;1263;22308;-91
2023/02/16 19:37:29;;;;;;;108.30;48.60;;;;;;;2.14;88.23;99667.17;273462;1269;22224;-92
2023/02/16 19:43:35;;;;;;;97.60;47.30;;;;;;;2.10;87.96;99662.50;273374;1269;22420;-91
2023/02/16 19:49:37;;;;;;;103.50;44.10;;;;;;;2.04;88.51;99656.95;273352;1269;23219;-90
2023/02/16 19:55:48;;;;;;;106.50;48.40;;;;;;;2.03;89.13;99657.09;273652;1268;22277;-90
2023/02/16 20:01:53;;;;;;;113.00;48.00;;;;;;;2.01;89.35;99665.50;273551;1275;22269;-91
2023/02/16 20:07:56;;;;;;;103.00;46.10;;;;;;;2.00;89.51;99668.70;273569;1270;22203;-90
2023/02/16 20:14:01;;;;;;;96.40;44.90;;;;;;;1.97;89.42;99668.83;273318;1269;22358;-91
2023/02/16 20:20:04;;;;;;;102.70;44.80;;;;;;;1.88;89.29;99672.31;273278;1270;22246;-90
2023/02/16 20:26:09;;;;;;;108.20;49.00;;;;;;;1.71;88.78;99671.36;273280;1270;22396;-91
2023/02/16 20:32:24;;;;;;;118.10;53.60;;;;;;;1.55;89.41;99668.77;273224;1269;22390;-90
2023/02/16 20:38:29;;;;;;;116.00;55.10;;;;;;;1.40;89.22;99663.87;273286;1270;22217;-90
2023/02/16 20:44:43;;;;;;;123.40;57.70;;;;;;;1.24;89.37;99661.41;271515;1269;22179;-90
2023/02/16 20:50:52;;;;;;;124.40;57.70;;;;;;;1.09;90.05;99663.04;271676;1270;23760;-89
2023/02/16 20:56:54;;;;;;;117.00;55.00;;;;;;;0.94;90.11;99665.90;271305;1270;22526;-89
2023/02/16 21:02:57;;;;;;;136.90;62.60;;;;;;;0.81;90.70;99658.67;270731;1270;22388;-89
2023/02/16 21:09:06;;;;;;;169.60;75.70;;;;;;;0.73;90.30;99648.36;273107;1270;22308;-89
2023/02/16 21:15:09;;;;;;;159.60;72.90;;;;;;;0.67;91.05;99644.96;273282;1269;22509;-88
2023/02/16 21:21:14;;;;;;;166.90;75.60;;;;;;;0.62;91.36;99653.50;271806;1269;23403;-89
2023/02/16 21:27:16;;;;;;;147.00;70.90;;;;;;;0.49;91.94;99660.08;273450;1271;115088;-89
2023/02/16 21:33:21;;;;;;;140.60;66.00;;;;;;;0.38;91.53;99655.06;273497;1270;22803;-89
2023/02/16 21:41:23;;;;;;;136.70;66.50;;;;;;;0.18;91.57;99648.79;273693;1269;23389;-89
2023/02/16 21:45:47;;;;;;;139.80;68.60;;;;;;;0.10;91.93;99639.48;273464;1269;22225;-90
2023/02/16 21:51:49;;;;;;;158.30;70.50;;;;;;;0.04;92.34;99639.46;273381;1269;22193;-90
2023/02/16 21:57:51;;;;;;;148.80;71.10;;;;;;;-0.02;92.57;99641.73;273487;1269;22314;-89
2023/02/16 22:03:58;;;;;;;134.70;59.70;;;;;;;-0.05;92.70;99645.07;273570;1270;23611;-90
2023/02/16 22:10:10;;;;;;;129.30;61.30;;;;;;;-0.14;92.32;99641.95;271974;1269;22358;-90
2023/02/16 22:16:19;;;;;;;141.00;66.60;;;;;;;-0.19;92.88;99635.51;271452;1271;22317;-89
2023/02/16 22:22:23;;;;;;;122.50;57.90;;;;;;;-0.18;93.43;99636.53;272315;1270;22317;-89
2023/02/16 22:28:29;;;;;;;133.40;59.50;;;;;;;-0.16;93.93;99634.02;273102;1270;22357;-90
2023/02/16 22:34:35;;;;;;;124.60;57.70;;;;;;;-0.14;94.10;99636.14;272227;1269;22447;-89
2023/02/16 22:40:38;;;;;;;127.10;54.10;;;;;;;-0.09;94.43;99635.87;269557;1270;22697;-89
2023/02/16 22:46:40;;;;;;;119.80;54.70;;;;;;;-0.00;94.71;99632.35;270279;1270;23162;-89
2023/02/16 22:52:43;;;;;;;116.90;54.10;;;;;;;0.02;94.40;99625.59;269506;1270;22617;-89
2023/02/16 22:58:46;;;;;;;118.00;51.40;;;;;;;0.01;94.43;99624.52;273095;1269;22229;-89
2023/02/16 23:04:48;;;;;;;113.60;51.80;;;;;;;0.04;94.87;99626.05;272836;1266;22584;-89
2023/02/16 23:11:01;;;;;;;118.20;53.50;;;;;;;0.02;94.96;99628.61;272089;1269;22843;-90
2023/02/16 23:17:19;;;;;;;112.80;49.50;;;;;;;-0.03;95.04;99627.52;272578;1270;22553;-89
2023/02/16 23:23:23;;;;;;;98.50;46.30;;;;;;;-0.04;95.23;99622.16;270468;1270;23833;-89
2023/02/16 23:29:27;;;;;;;93.00;42.80;;;;;;;-0.03;95.40;99628.73;270907;1259;22632;-87
2023/02/16 23:35:31;;;;;;;98.00;44.20;;;;;;;0.00;95.25;99626.70;270326;1270;24192;-88
2023/02/16 23:41:34;;;;;;;88.60;42.50;;;;;;;0.06;95.64;99622.95;269997;1269;23186;-89
2023/02/16 23:47:36;;;;;;;98.00;45.90;;;;;;;0.05;95.39;99622.80;271368;1270;22564;-89
2023/02/16 23:53:39;;;;;;;100.60;44.50;;;;;;;0.01;95.53;99622.21;272657;1269;23132;-90
2023/02/16 23:59:42;;;;;;;105.10;47.10;;;;;;;-0.04;95.87;99624.17;271817;1263;22201;-90
